sensor_id;sensor_type;location;lat;lon;timestamp;P1;durP1;ratioP1;P2;durP2;ratioP2
14060;SDS011;7105;43.616;1.434;2023-04-25T00:01:00;4.30;;;3.20;;
14060;SDS011;7105;43.616;1.434;2023-04-25T00:03:27;5.20;;;3.43;;
14060;SDS011;7105;43.616;1.434;2023-04-25T00:05:54;4.80;;;3.23;;
14060;SDS011;7105;43.616;1.434;2023-04-25T00:08:21;4.30;;;3.00;;
14060;SDS011;7105;43.616;1.434;2023-04-25T00:10:47;4.23;;;3.00;;
14060;SDS011;7105;43.616;1.434;2023-04-25T00:13:14;4.23;;;3.10;;
14060;SDS011;7105;43.616;1.434;2023-04-25T00:15:40;5.63;;;3.53;;
14060;SDS011;7105;43.616;1.434;2023-04-25T00:18:06;5.17;;;3.47;;
14060;SDS011;7105;43.616;1.434;2023-04-25T00:20:32;6.77;;;3.30;;
14060;SDS011;7105;43.616;1.434;2023-04-25T00:22:58;8.03;;;3.63;;
14060;SDS011;7105;43.616;1.434;2023-04-25T00:25:24;3.83;;;3.23;;
14060;SDS011;7105;43.616;1.434;2023-04-25T00:27:50;5.00;;;3.20;;
14060;SDS011;7105;43.616;1.434;2023-04-25T00:30:15;4.03;;;3.10;;
14060;SDS011;7105;43.616;1.434;2023-04-25T00:32:41;3.83;;;3.47;;
14060;SDS011;7105;43.616;1.434;2023-04-25T00:35:07;6.47;;;3.50;;
14060;SDS011;7105;43.616;1.434;2023-04-25T00:37:33;7.47;;;3.90;;
14060;SDS011;7105;43.616;1.434;2023-04-25T00:39:59;3.87;;;3.57;;
14060;SDS011;7105;43.616;1.434;2023-04-25T00:42:25;6.00;;;4.00;;
14060;SDS011;7105;43.616;1.434;2023-04-25T00:44:52;6.17;;;3.93;;
14060;SDS011;7105;43.616;1.434;2023-04-25T00:47:18;4.10;;;3.70;;
14060;SDS011;7105;43.616;1.434;2023-04-25T00:49:44;6.10;;;4.13;;
14060;SDS011;7105;43.616;1.434;2023-04-25T00:52:10;5.13;;;3.80;;
14060;SDS011;7105;43.616;1.434;2023-04-25T00:54:36;5.47;;;4.20;;
14060;SDS011;7105;43.616;1.434;2023-04-25T00:57:03;5.97;;;3.77;;
14060;SDS011;7105;43.616;1.434;2023-04-25T00:59:28;6.03;;;3.87;;
14060;SDS011;7105;43.616;1.434;2023-04-25T01:01:55;6.47;;;4.23;;
14060;SDS011;7105;43.616;1.434;2023-04-25T01:04:21;7.50;;;3.97;;
14060;SDS011;7105;43.616;1.434;2023-04-25T01:06:47;5.20;;;3.70;;
14060;SDS011;7105;43.616;1.434;2023-04-25T01:09:13;5.53;;;4.03;;
14060;SDS011;7105;43.616;1.434;2023-04-25T01:11:39;4.33;;;3.67;;
14060;SDS011;7105;43.616;1.434;2023-04-25T01:14:05;4.37;;;3.70;;
14060;SDS011;7105;43.616;1.434;2023-04-25T01:16:31;5.53;;;3.97;;
14060;SDS011;7105;43.616;1.434;2023-04-25T01:18:58;5.70;;;3.97;;
14060;SDS011;7105;43.616;1.434;2023-04-25T01:21:24;6.23;;;3.67;;
14060;SDS011;7105;43.616;1.434;2023-04-25T01:23:52;5.33;;;3.90;;
14060;SDS011;7105;43.616;1.434;2023-04-25T01:26:18;4.50;;;3.37;;
14060;SDS011;7105;43.616;1.434;2023-04-25T01:28:46;6.40;;;3.50;;
14060;SDS011;7105;43.616;1.434;2023-04-25T01:31:12;4.70;;;3.23;;
14060;SDS011;7105;43.616;1.434;2023-04-25T01:33:39;3.73;;;3.00;;
14060;SDS011;7105;43.616;1.434;2023-04-25T01:36:05;4.10;;;3.03;;
14060;SDS011;7105;43.616;1.434;2023-04-25T01:38:31;2.70;;;2.10;;
14060;SDS011;7105;43.616;1.434;2023-04-25T01:40:56;2.60;;;1.77;;
14060;SDS011;7105;43.616;1.434;2023-04-25T01:43:22;2.63;;;1.63;;
14060;SDS011;7105;43.616;1.434;2023-04-25T01:45:49;2.00;;;1.70;;
14060;SDS011;7105;43.616;1.434;2023-04-25T01:48:15;2.00;;;1.50;;
14060;SDS011;7105;43.616;1.434;2023-04-25T01:50:41;1.40;;;1.30;;
14060;SDS011;7105;43.616;1.434;2023-04-25T01:53:07;3.10;;;1.40;;
14060;SDS011;7105;43.616;1.434;2023-04-25T01:55:35;1.73;;;1.27;;
14060;SDS011;7105;43.616;1.434;2023-04-25T01:58:02;2.23;;;1.30;;
14060;SDS011;7105;43.616;1.434;2023-04-25T02:00:28;2.03;;;1.13;;
14060;SDS011;7105;43.616;1.434;2023-04-25T02:02:57;2.17;;;1.27;;
14060;SDS011;7105;43.616;1.434;2023-04-25T02:05:23;2.07;;;1.17;;
14060;SDS011;7105;43.616;1.434;2023-04-25T02:07:49;1.43;;;1.17;;
14060;SDS011;7105;43.616;1.434;2023-04-25T02:10:14;1.80;;;1.30;;
14060;SDS011;7105;43.616;1.434;2023-04-25T02:12:40;2.43;;;1.20;;
14060;SDS011;7105;43.616;1.434;2023-04-25T02:15:06;0.87;;;0.87;;
14060;SDS011;7105;43.616;1.434;2023-04-25T02:17:32;2.83;;;1.07;;
14060;SDS011;7105;43.616;1.434;2023-04-25T02:19:58;1.10;;;1.00;;
14060;SDS011;7105;43.616;1.434;2023-04-25T02:22:24;1.27;;;0.97;;
14060;SDS011;7105;43.616;1.434;2023-04-25T02:24:51;1.60;;;1.10;;
14060;SDS011;7105;43.616;1.434;2023-04-25T02:27:17;2.40;;;1.00;;
14060;SDS011;7105;43.616;1.434;2023-04-25T02:29:43;2.20;;;1.03;;
14060;SDS011;7105;43.616;1.434;2023-04-25T02:32:09;1.67;;;0.90;;
14060;SDS011;7105;43.616;1.434;2023-04-25T02:34:34;1.67;;;0.90;;
14060;SDS011;7105;43.616;1.434;2023-04-25T02:37:00;1.70;;;0.87;;
14060;SDS011;7105;43.616;1.434;2023-04-25T02:39:26;1.60;;;0.70;;
14060;SDS011;7105;43.616;1.434;2023-04-25T02:41:52;2.67;;;0.80;;
14060;SDS011;7105;43.616;1.434;2023-04-25T02:44:17;1.20;;;0.70;;
14060;SDS011;7105;43.616;1.434;2023-04-25T02:46:43;0.67;;;0.60;;
14060;SDS011;7105;43.616;1.434;2023-04-25T02:49:09;0.70;;;0.67;;
14060;SDS011;7105;43.616;1.434;2023-04-25T02:51:34;1.47;;;0.50;;
14060;SDS011;7105;43.616;1.434;2023-04-25T02:54:00;0.80;;;0.60;;
14060;SDS011;7105;43.616;1.434;2023-04-25T02:56:25;0.50;;;0.50;;
14060;SDS011;7105;43.616;1.434;2023-04-25T02:58:52;0.60;;;0.60;;
14060;SDS011;7105;43.616;1.434;2023-04-25T03:01:18;3.60;;;0.70;;
14060;SDS011;7105;43.616;1.434;2023-04-25T03:03:43;0.77;;;0.63;;
14060;SDS011;7105;43.616;1.434;2023-04-25T03:06:09;0.50;;;0.50;;
14060;SDS011;7105;43.616;1.434;2023-04-25T03:08:35;1.10;;;0.50;;
14060;SDS011;7105;43.616;1.434;2023-04-25T03:11:00;0.73;;;0.57;;
14060;SDS011;7105;43.616;1.434;2023-04-25T03:13:26;1.20;;;0.60;;
14060;SDS011;7105;43.616;1.434;2023-04-25T03:15:54;0.60;;;0.60;;
14060;SDS011;7105;43.616;1.434;2023-04-25T03:18:20;1.00;;;0.63;;
14060;SDS011;7105;43.616;1.434;2023-04-25T03:20:45;2.43;;;0.57;;
14060;SDS011;7105;43.616;1.434;2023-04-25T03:23:11;1.57;;;0.60;;
14060;SDS011;7105;43.616;1.434;2023-04-25T03:25:37;1.10;;;0.60;;
14060;SDS011;7105;43.616;1.434;2023-04-25T03:28:03;1.17;;;0.60;;
14060;SDS011;7105;43.616;1.434;2023-04-25T03:30:28;2.80;;;0.60;;
14060;SDS011;7105;43.616;1.434;2023-04-25T03:32:54;0.53;;;0.53;;
14060;SDS011;7105;43.616;1.434;2023-04-25T03:35:20;0.57;;;0.50;;
14060;SDS011;7105;43.616;1.434;2023-04-25T03:37:46;1.87;;;0.63;;
14060;SDS011;7105;43.616;1.434;2023-04-25T03:40:11;1.30;;;0.80;;
14060;SDS011;7105;43.616;1.434;2023-04-25T03:42:37;1.33;;;0.70;;
14060;SDS011;7105;43.616;1.434;2023-04-25T03:45:03;1.43;;;0.80;;
14060;SDS011;7105;43.616;1.434;2023-04-25T03:47:29;1.63;;;0.90;;
14060;SDS011;7105;43.616;1.434;2023-04-25T03:49:54;1.77;;;0.90;;
14060;SDS011;7105;43.616;1.434;2023-04-25T03:52:20;1.93;;;0.80;;
14060;SDS011;7105;43.616;1.434;2023-04-25T03:54:46;0.70;;;0.70;;
14060;SDS011;7105;43.616;1.434;2023-04-25T03:57:11;1.30;;;0.80;;
14060;SDS011;7105;43.616;1.434;2023-04-25T03:59:37;1.97;;;0.80;;
14060;SDS011;7105;43.616;1.434;2023-04-25T04:02:03;2.27;;;0.90;;
14060;SDS011;7105;43.616;1.434;2023-04-25T04:04:28;0.73;;;0.73;;
14060;SDS011;7105;43.616;1.434;2023-04-25T04:06:55;0.77;;;0.70;;
14060;SDS011;7105;43.616;1.434;2023-04-25T04:09:20;1.83;;;0.90;;
14060;SDS011;7105;43.616;1.434;2023-04-25T04:11:46;1.07;;;0.80;;
14060;SDS011;7105;43.616;1.434;2023-04-25T04:14:12;1.23;;;0.90;;
14060;SDS011;7105;43.616;1.434;2023-04-25T04:16:38;1.00;;;0.83;;
14060;SDS011;7105;43.616;1.434;2023-04-25T04:19:03;1.63;;;0.80;;
14060;SDS011;7105;43.616;1.434;2023-04-25T04:21:30;1.37;;;0.90;;
14060;SDS011;7105;43.616;1.434;2023-04-25T04:23:56;1.00;;;0.80;;
14060;SDS011;7105;43.616;1.434;2023-04-25T04:26:22;1.30;;;0.80;;
14060;SDS011;7105;43.616;1.434;2023-04-25T04:28:49;1.57;;;0.93;;
14060;SDS011;7105;43.616;1.434;2023-04-25T04:31:19;2.67;;;1.07;;
14060;SDS011;7105;43.616;1.434;2023-04-25T04:33:48;1.10;;;0.90;;
14060;SDS011;7105;43.616;1.434;2023-04-25T04:36:14;1.73;;;0.90;;
14060;SDS011;7105;43.616;1.434;2023-04-25T04:38:41;0.97;;;0.90;;
14060;SDS011;7105;43.616;1.434;2023-04-25T04:41:07;1.37;;;0.90;;
14060;SDS011;7105;43.616;1.434;2023-04-25T04:43:33;1.10;;;1.00;;
14060;SDS011;7105;43.616;1.434;2023-04-25T04:46:02;2.80;;;1.03;;
14060;SDS011;7105;43.616;1.434;2023-04-25T04:48:29;2.50;;;1.43;;
14060;SDS011;7105;43.616;1.434;2023-04-25T04:50:57;2.50;;;0.90;;
14060;SDS011;7105;43.616;1.434;2023-04-25T04:53:23;1.57;;;1.00;;
14060;SDS011;7105;43.616;1.434;2023-04-25T04:55:49;3.27;;;0.80;;
14060;SDS011;7105;43.616;1.434;2023-04-25T04:58:15;1.23;;;0.90;;
14060;SDS011;7105;43.616;1.434;2023-04-25T05:00:40;1.43;;;1.00;;
14060;SDS011;7105;43.616;1.434;2023-04-25T05:03:06;1.17;;;0.90;;
14060;SDS011;7105;43.616;1.434;2023-04-25T05:05:32;1.90;;;0.90;;
14060;SDS011;7105;43.616;1.434;2023-04-25T05:07:57;1.70;;;1.03;;
14060;SDS011;7105;43.616;1.434;2023-04-25T05:10:23;1.80;;;0.90;;
14060;SDS011;7105;43.616;1.434;2023-04-25T05:12:51;2.50;;;1.10;;
14060;SDS011;7105;43.616;1.434;2023-04-25T05:15:16;1.77;;;1.20;;
14060;SDS011;7105;43.616;1.434;2023-04-25T05:17:42;1.30;;;1.20;;
14060;SDS011;7105;43.616;1.434;2023-04-25T05:20:08;1.33;;;1.10;;
14060;SDS011;7105;43.616;1.434;2023-04-25T05:22:34;2.67;;;1.07;;
14060;SDS011;7105;43.616;1.434;2023-04-25T05:25:00;2.43;;;1.00;;
14060;SDS011;7105;43.616;1.434;2023-04-25T05:27:26;2.07;;;1.33;;
14060;SDS011;7105;43.616;1.434;2023-04-25T05:29:52;1.30;;;1.20;;
14060;SDS011;7105;43.616;1.434;2023-04-25T05:32:17;1.67;;;1.10;;
14060;SDS011;7105;43.616;1.434;2023-04-25T05:34:43;1.97;;;1.33;;
14060;SDS011;7105;43.616;1.434;2023-04-25T05:37:09;1.37;;;1.20;;
14060;SDS011;7105;43.616;1.434;2023-04-25T05:39:35;1.30;;;1.20;;
14060;SDS011;7105;43.616;1.434;2023-04-25T05:42:00;1.20;;;1.10;;
14060;SDS011;7105;43.616;1.434;2023-04-25T05:44:27;1.77;;;1.20;;
14060;SDS011;7105;43.616;1.434;2023-04-25T05:46:53;1.80;;;1.33;;
14060;SDS011;7105;43.616;1.434;2023-04-25T05:49:18;1.43;;;1.33;;
14060;SDS011;7105;43.616;1.434;2023-04-25T05:51:44;2.27;;;1.37;;
14060;SDS011;7105;43.616;1.434;2023-04-25T05:54:10;2.33;;;1.87;;
14060;SDS011;7105;43.616;1.434;2023-04-25T05:56:36;3.40;;;2.73;;
14060;SDS011;7105;43.616;1.434;2023-04-25T05:59:01;3.63;;;2.00;;
14060;SDS011;7105;43.616;1.434;2023-04-25T06:01:28;1.60;;;1.40;;
14060;SDS011;7105;43.616;1.434;2023-04-25T06:03:53;1.83;;;1.50;;
14060;SDS011;7105;43.616;1.434;2023-04-25T06:06:19;1.80;;;1.20;;
14060;SDS011;7105;43.616;1.434;2023-04-25T06:08:45;2.17;;;1.30;;
14060;SDS011;7105;43.616;1.434;2023-04-25T06:11:10;2.30;;;1.40;;
14060;SDS011;7105;43.616;1.434;2023-04-25T06:13:36;2.00;;;1.20;;
14060;SDS011;7105;43.616;1.434;2023-04-25T06:16:02;1.87;;;1.30;;
14060;SDS011;7105;43.616;1.434;2023-04-25T06:18:28;3.10;;;2.80;;
14060;SDS011;7105;43.616;1.434;2023-04-25T06:20:53;1.77;;;1.50;;
14060;SDS011;7105;43.616;1.434;2023-04-25T06:23:19;1.50;;;1.40;;
14060;SDS011;7105;43.616;1.434;2023-04-25T06:25:44;1.87;;;1.67;;
14060;SDS011;7105;43.616;1.434;2023-04-25T06:28:10;3.20;;;2.27;;
14060;SDS011;7105;43.616;1.434;2023-04-25T06:30:36;2.07;;;1.87;;
14060;SDS011;7105;43.616;1.434;2023-04-25T06:33:01;2.33;;;1.50;;
14060;SDS011;7105;43.616;1.434;2023-04-25T06:35:27;1.57;;;1.20;;
14060;SDS011;7105;43.616;1.434;2023-04-25T06:37:52;3.30;;;1.33;;
14060;SDS011;7105;43.616;1.434;2023-04-25T06:40:18;2.73;;;1.40;;
14060;SDS011;7105;43.616;1.434;2023-04-25T06:42:44;1.50;;;1.40;;
14060;SDS011;7105;43.616;1.434;2023-04-25T06:45:10;1.20;;;1.10;;
14060;SDS011;7105;43.616;1.434;2023-04-25T06:47:35;1.57;;;1.40;;
14060;SDS011;7105;43.616;1.434;2023-04-25T06:50:01;2.33;;;0.97;;
14060;SDS011;7105;43.616;1.434;2023-04-25T06:52:27;1.10;;;0.83;;
14060;SDS011;7105;43.616;1.434;2023-04-25T06:54:52;1.47;;;1.20;;
14060;SDS011;7105;43.616;1.434;2023-04-25T06:57:18;1.10;;;0.90;;
14060;SDS011;7105;43.616;1.434;2023-04-25T06:59:43;1.10;;;0.90;;
14060;SDS011;7105;43.616;1.434;2023-04-25T07:02:09;1.10;;;1.00;;
14060;SDS011;7105;43.616;1.434;2023-04-25T07:04:35;1.07;;;0.83;;
14060;SDS011;7105;43.616;1.434;2023-04-25T07:07:01;2.10;;;1.10;;
14060;SDS011;7105;43.616;1.434;2023-04-25T07:09:28;1.27;;;0.90;;
14060;SDS011;7105;43.616;1.434;2023-04-25T07:11:55;2.10;;;0.90;;
14060;SDS011;7105;43.616;1.434;2023-04-25T07:14:21;0.90;;;0.80;;
14060;SDS011;7105;43.616;1.434;2023-04-25T07:16:47;1.00;;;0.90;;
14060;SDS011;7105;43.616;1.434;2023-04-25T07:19:13;0.40;;;0.40;;
14060;SDS011;7105;43.616;1.434;2023-04-25T07:21:38;1.90;;;0.70;;
14060;SDS011;7105;43.616;1.434;2023-04-25T07:24:04;0.60;;;0.53;;
14060;SDS011;7105;43.616;1.434;2023-04-25T07:26:30;1.80;;;0.67;;
14060;SDS011;7105;43.616;1.434;2023-04-25T07:28:56;0.77;;;0.40;;
14060;SDS011;7105;43.616;1.434;2023-04-25T07:31:22;1.13;;;0.60;;
14060;SDS011;7105;43.616;1.434;2023-04-25T07:33:48;0.57;;;0.40;;
14060;SDS011;7105;43.616;1.434;2023-04-25T07:36:14;0.73;;;0.50;;
14060;SDS011;7105;43.616;1.434;2023-04-25T07:38:40;0.70;;;0.60;;
14060;SDS011;7105;43.616;1.434;2023-04-25T07:41:06;1.00;;;0.70;;
14060;SDS011;7105;43.616;1.434;2023-04-25T07:43:32;1.63;;;0.70;;
14060;SDS011;7105;43.616;1.434;2023-04-25T07:45:57;0.50;;;0.50;;
14060;SDS011;7105;43.616;1.434;2023-04-25T07:48:23;0.60;;;0.60;;
14060;SDS011;7105;43.616;1.434;2023-04-25T07:50:49;1.90;;;0.70;;
14060;SDS011;7105;43.616;1.434;2023-04-25T07:53:15;1.43;;;0.67;;
14060;SDS011;7105;43.616;1.434;2023-04-25T07:55:41;1.10;;;0.73;;
14060;SDS011;7105;43.616;1.434;2023-04-25T07:58:07;1.63;;;0.77;;
14060;SDS011;7105;43.616;1.434;2023-04-25T08:00:33;1.30;;;0.70;;
14060;SDS011;7105;43.616;1.434;2023-04-25T08:02:58;1.50;;;0.90;;
14060;SDS011;7105;43.616;1.434;2023-04-25T08:05:24;1.00;;;0.90;;
14060;SDS011;7105;43.616;1.434;2023-04-25T08:07:50;4.30;;;1.83;;
14060;SDS011;7105;43.616;1.434;2023-04-25T08:10:15;1.97;;;0.90;;
14060;SDS011;7105;43.616;1.434;2023-04-25T08:12:41;1.93;;;0.90;;
14060;SDS011;7105;43.616;1.434;2023-04-25T08:15:07;2.17;;;0.60;;
14060;SDS011;7105;43.616;1.434;2023-04-25T08:17:33;2.27;;;1.13;;
14060;SDS011;7105;43.616;1.434;2023-04-25T08:19:59;1.63;;;1.10;;
14060;SDS011;7105;43.616;1.434;2023-04-25T08:22:25;1.33;;;0.90;;
14060;SDS011;7105;43.616;1.434;2023-04-25T08:24:50;1.13;;;0.83;;
14060;SDS011;7105;43.616;1.434;2023-04-25T08:27:17;1.40;;;0.90;;
14060;SDS011;7105;43.616;1.434;2023-04-25T08:29:43;1.20;;;0.60;;
14060;SDS011;7105;43.616;1.434;2023-04-25T08:32:09;0.60;;;0.50;;
14060;SDS011;7105;43.616;1.434;2023-04-25T08:34:34;4.73;;;1.40;;
14060;SDS011;7105;43.616;1.434;2023-04-25T08:37:01;1.00;;;0.90;;
14060;SDS011;7105;43.616;1.434;2023-04-25T08:39:29;1.87;;;0.80;;
14060;SDS011;7105;43.616;1.434;2023-04-25T08:41:54;1.10;;;0.60;;
14060;SDS011;7105;43.616;1.434;2023-04-25T08:44:21;1.63;;;0.70;;
14060;SDS011;7105;43.616;1.434;2023-04-25T08:46:48;2.20;;;0.90;;
14060;SDS011;7105;43.616;1.434;2023-04-25T08:49:15;1.40;;;0.70;;
14060;SDS011;7105;43.616;1.434;2023-04-25T08:51:45;0.63;;;0.63;;
14060;SDS011;7105;43.616;1.434;2023-04-25T08:54:12;0.90;;;0.80;;
14060;SDS011;7105;43.616;1.434;2023-04-25T08:56:41;0.90;;;0.80;;
14060;SDS011;7105;43.616;1.434;2023-04-25T08:59:09;2.13;;;1.00;;
14060;SDS011;7105;43.616;1.434;2023-04-25T09:01:36;1.07;;;0.70;;
14060;SDS011;7105;43.616;1.434;2023-04-25T09:04:02;3.47;;;0.90;;
14060;SDS011;7105;43.616;1.434;2023-04-25T09:06:31;0.97;;;0.80;;
14060;SDS011;7105;43.616;1.434;2023-04-25T09:09:03;0.97;;;0.63;;
14060;SDS011;7105;43.616;1.434;2023-04-25T09:11:30;0.80;;;0.73;;
14060;SDS011;7105;43.616;1.434;2023-04-25T09:14:10;2.33;;;1.00;;
14060;SDS011;7105;43.616;1.434;2023-04-25T09:16:54;1.40;;;0.90;;
14060;SDS011;7105;43.616;1.434;2023-04-25T09:19:23;1.40;;;1.20;;
14060;SDS011;7105;43.616;1.434;2023-04-25T09:21:50;2.33;;;1.37;;
14060;SDS011;7105;43.616;1.434;2023-04-25T09:24:16;1.60;;;1.40;;
14060;SDS011;7105;43.616;1.434;2023-04-25T09:26:54;1.97;;;1.30;;
14060;SDS011;7105;43.616;1.434;2023-04-25T09:29:20;1.60;;;1.00;;
14060;SDS011;7105;43.616;1.434;2023-04-25T09:32:13;0.97;;;0.90;;
14060;SDS011;7105;43.616;1.434;2023-04-25T09:34:56;0.70;;;0.60;;
14060;SDS011;7105;43.616;1.434;2023-04-25T09:37:23;0.97;;;0.97;;
14060;SDS011;7105;43.616;1.434;2023-04-25T09:39:59;1.00;;;0.90;;
14060;SDS011;7105;43.616;1.434;2023-04-25T09:42:30;2.50;;;1.70;;
14060;SDS011;7105;43.616;1.434;2023-04-25T09:44:59;1.03;;;0.90;;
14060;SDS011;7105;43.616;1.434;2023-04-25T09:47:27;1.60;;;1.30;;
14060;SDS011;7105;43.616;1.434;2023-04-25T09:49:53;1.13;;;0.90;;
14060;SDS011;7105;43.616;1.434;2023-04-25T09:52:21;2.10;;;1.60;;
14060;SDS011;7105;43.616;1.434;2023-04-25T09:54:49;2.23;;;1.40;;
14060;SDS011;7105;43.616;1.434;2023-04-25T09:57:22;2.47;;;1.20;;
14060;SDS011;7105;43.616;1.434;2023-04-25T09:59:52;1.87;;;1.47;;
14060;SDS011;7105;43.616;1.434;2023-04-25T10:02:22;2.63;;;0.90;;
14060;SDS011;7105;43.616;1.434;2023-04-25T10:04:53;1.20;;;1.10;;
14060;SDS011;7105;43.616;1.434;2023-04-25T10:07:23;1.60;;;1.17;;
14060;SDS011;7105;43.616;1.434;2023-04-25T10:09:55;1.13;;;1.03;;
14060;SDS011;7105;43.616;1.434;2023-04-25T10:12:28;2.70;;;1.60;;
14060;SDS011;7105;43.616;1.434;2023-04-25T10:14:54;1.97;;;1.70;;
14060;SDS011;7105;43.616;1.434;2023-04-25T10:17:20;2.93;;;1.97;;
14060;SDS011;7105;43.616;1.434;2023-04-25T10:19:49;2.97;;;2.03;;
14060;SDS011;7105;43.616;1.434;2023-04-25T10:24:53;2.83;;;2.00;;
14060;SDS011;7105;43.616;1.434;2023-04-25T10:27:21;2.57;;;2.03;;
14060;SDS011;7105;43.616;1.434;2023-04-25T10:29:59;1.93;;;1.47;;
14060;SDS011;7105;43.616;1.434;2023-04-25T10:32:32;3.13;;;2.67;;
14060;SDS011;7105;43.616;1.434;2023-04-25T10:35:04;2.73;;;1.00;;
14060;SDS011;7105;43.616;1.434;2023-04-25T10:40:29;2.33;;;1.30;;
14060;SDS011;7105;43.616;1.434;2023-04-25T10:42:55;1.20;;;1.07;;
14060;SDS011;7105;43.616;1.434;2023-04-25T10:45:53;1.47;;;1.00;;
14060;SDS011;7105;43.616;1.434;2023-04-25T10:48:31;1.10;;;0.90;;
14060;SDS011;7105;43.616;1.434;2023-04-25T10:51:39;1.00;;;0.90;;
14060;SDS011;7105;43.616;1.434;2023-04-25T10:59:09;1.67;;;1.10;;
14060;SDS011;7105;43.616;1.434;2023-04-25T11:01:40;2.17;;;1.00;;
14060;SDS011;7105;43.616;1.434;2023-04-25T11:09:25;1.03;;;0.93;;
14060;SDS011;7105;43.616;1.434;2023-04-25T11:11:54;1.23;;;0.90;;
14060;SDS011;7105;43.616;1.434;2023-04-25T11:14:21;1.20;;;0.87;;
14060;SDS011;7105;43.616;1.434;2023-04-25T11:16:47;1.47;;;0.80;;
14060;SDS011;7105;43.616;1.434;2023-04-25T11:19:19;1.37;;;0.83;;
14060;SDS011;7105;43.616;1.434;2023-04-25T11:21:45;1.70;;;0.70;;
14060;SDS011;7105;43.616;1.434;2023-04-25T11:24:11;1.37;;;0.90;;
14060;SDS011;7105;43.616;1.434;2023-04-25T11:26:36;1.00;;;0.80;;
14060;SDS011;7105;43.616;1.434;2023-04-25T11:29:02;0.80;;;0.80;;
14060;SDS011;7105;43.616;1.434;2023-04-25T11:31:28;1.40;;;0.90;;
14060;SDS011;7105;43.616;1.434;2023-04-25T11:33:56;0.70;;;0.60;;
14060;SDS011;7105;43.616;1.434;2023-04-25T11:36:23;1.40;;;0.90;;
14060;SDS011;7105;43.616;1.434;2023-04-25T11:38:50;0.93;;;0.70;;
14060;SDS011;7105;43.616;1.434;2023-04-25T11:41:17;1.10;;;0.70;;
14060;SDS011;7105;43.616;1.434;2023-04-25T11:43:43;1.10;;;0.87;;
14060;SDS011;7105;43.616;1.434;2023-04-25T11:46:09;0.93;;;0.93;;
14060;SDS011;7105;43.616;1.434;2023-04-25T11:48:38;0.80;;;0.80;;
14060;SDS011;7105;43.616;1.434;2023-04-25T11:51:05;2.03;;;0.80;;
14060;SDS011;7105;43.616;1.434;2023-04-25T11:53:31;1.10;;;0.90;;
14060;SDS011;7105;43.616;1.434;2023-04-25T11:55:57;1.27;;;0.80;;
14060;SDS011;7105;43.616;1.434;2023-04-25T11:58:22;1.97;;;1.20;;
14060;SDS011;7105;43.616;1.434;2023-04-25T12:00:48;2.67;;;1.10;;
14060;SDS011;7105;43.616;1.434;2023-04-25T12:03:14;0.80;;;0.80;;
14060;SDS011;7105;43.616;1.434;2023-04-25T12:05:39;2.07;;;1.07;;
14060;SDS011;7105;43.616;1.434;2023-04-25T12:10:38;1.17;;;1.07;;
14060;SDS011;7105;43.616;1.434;2023-04-25T12:13:21;1.10;;;1.00;;
14060;SDS011;7105;43.616;1.434;2023-04-25T12:15:49;3.00;;;1.70;;
14060;SDS011;7105;43.616;1.434;2023-04-25T12:18:15;0.90;;;0.90;;
14060;SDS011;7105;43.616;1.434;2023-04-25T12:20:44;1.40;;;1.20;;
14060;SDS011;7105;43.616;1.434;2023-04-25T12:23:10;1.67;;;1.57;;
14060;SDS011;7105;43.616;1.434;2023-04-25T12:28:14;1.60;;;1.50;;
14060;SDS011;7105;43.616;1.434;2023-04-25T12:33:23;1.40;;;1.30;;
14060;SDS011;7105;43.616;1.434;2023-04-25T12:35:51;1.70;;;1.60;;
14060;SDS011;7105;43.616;1.434;2023-04-25T12:38:21;2.00;;;1.40;;
14060;SDS011;7105;43.616;1.434;2023-04-25T12:40:48;1.70;;;1.50;;
14060;SDS011;7105;43.616;1.434;2023-04-25T12:43:14;2.33;;;1.77;;
14060;SDS011;7105;43.616;1.434;2023-04-25T12:45:40;1.53;;;1.30;;
14060;SDS011;7105;43.616;1.434;2023-04-25T12:48:05;1.30;;;1.20;;
14060;SDS011;7105;43.616;1.434;2023-04-25T12:50:31;1.77;;;1.67;;
14060;SDS011;7105;43.616;1.434;2023-04-25T12:52:57;1.70;;;1.53;;
14060;SDS011;7105;43.616;1.434;2023-04-25T12:55:22;4.23;;;2.60;;
14060;SDS011;7105;43.616;1.434;2023-04-25T12:57:48;3.30;;;2.40;;
14060;SDS011;7105;43.616;1.434;2023-04-25T13:00:14;3.27;;;2.00;;
14060;SDS011;7105;43.616;1.434;2023-04-25T13:02:42;2.23;;;1.90;;
14060;SDS011;7105;43.616;1.434;2023-04-25T13:05:08;1.90;;;1.80;;
14060;SDS011;7105;43.616;1.434;2023-04-25T13:07:34;2.33;;;1.97;;
14060;SDS011;7105;43.616;1.434;2023-04-25T13:09:59;3.40;;;2.00;;
14060;SDS011;7105;43.616;1.434;2023-04-25T13:12:27;1.87;;;1.70;;
14060;SDS011;7105;43.616;1.434;2023-04-25T13:14:53;2.13;;;1.70;;
14060;SDS011;7105;43.616;1.434;2023-04-25T13:17:18;2.60;;;2.13;;
14060;SDS011;7105;43.616;1.434;2023-04-25T13:19:44;1.83;;;1.63;;
14060;SDS011;7105;43.616;1.434;2023-04-25T13:22:10;3.07;;;2.00;;
14060;SDS011;7105;43.616;1.434;2023-04-25T13:24:36;1.50;;;1.40;;
14060;SDS011;7105;43.616;1.434;2023-04-25T13:27:01;1.60;;;1.50;;
14060;SDS011;7105;43.616;1.434;2023-04-25T13:29:27;2.23;;;1.50;;
14060;SDS011;7105;43.616;1.434;2023-04-25T13:31:53;1.83;;;1.40;;
14060;SDS011;7105;43.616;1.434;2023-04-25T13:34:19;1.90;;;1.43;;
14060;SDS011;7105;43.616;1.434;2023-04-25T13:36:44;3.80;;;1.40;;
14060;SDS011;7105;43.616;1.434;2023-04-25T13:39:10;1.40;;;1.30;;
14060;SDS011;7105;43.616;1.434;2023-04-25T13:41:36;0.70;;;0.70;;
14060;SDS011;7105;43.616;1.434;2023-04-25T13:44:02;1.10;;;1.00;;
14060;SDS011;7105;43.616;1.434;2023-04-25T13:46:27;0.93;;;0.87;;
14060;SDS011;7105;43.616;1.434;2023-04-25T13:48:53;2.13;;;1.10;;
14060;SDS011;7105;43.616;1.434;2023-04-25T13:51:19;1.83;;;1.00;;
14060;SDS011;7105;43.616;1.434;2023-04-25T13:53:45;2.33;;;0.90;;
14060;SDS011;7105;43.616;1.434;2023-04-25T13:56:11;1.33;;;1.10;;
14060;SDS011;7105;43.616;1.434;2023-04-25T13:58:37;2.53;;;1.80;;
14060;SDS011;7105;43.616;1.434;2023-04-25T14:01:03;2.67;;;1.30;;
14060;SDS011;7105;43.616;1.434;2023-04-25T14:03:28;1.80;;;1.30;;
14060;SDS011;7105;43.616;1.434;2023-04-25T14:05:55;1.57;;;1.43;;
14060;SDS011;7105;43.616;1.434;2023-04-25T14:08:20;2.23;;;1.60;;
14060;SDS011;7105;43.616;1.434;2023-04-25T14:10:46;3.83;;;1.60;;
14060;SDS011;7105;43.616;1.434;2023-04-25T14:13:12;2.70;;;1.60;;
14060;SDS011;7105;43.616;1.434;2023-04-25T14:15:37;1.73;;;1.37;;
14060;SDS011;7105;43.616;1.434;2023-04-25T14:18:03;3.80;;;2.50;;
14060;SDS011;7105;43.616;1.434;2023-04-25T14:20:29;1.03;;;0.93;;
14060;SDS011;7105;43.616;1.434;2023-04-25T14:22:55;2.37;;;1.30;;
14060;SDS011;7105;43.616;1.434;2023-04-25T14:25:23;1.40;;;1.30;;
14060;SDS011;7105;43.616;1.434;2023-04-25T14:27:49;2.83;;;1.07;;
14060;SDS011;7105;43.616;1.434;2023-04-25T14:30:18;0.90;;;0.90;;
14060;SDS011;7105;43.616;1.434;2023-04-25T14:32:45;1.70;;;1.00;;
14060;SDS011;7105;43.616;1.434;2023-04-25T14:35:11;1.03;;;1.00;;
14060;SDS011;7105;43.616;1.434;2023-04-25T14:37:36;2.23;;;1.80;;
14060;SDS011;7105;43.616;1.434;2023-04-25T14:40:02;1.87;;;1.30;;
14060;SDS011;7105;43.616;1.434;2023-04-25T14:42:30;1.57;;;1.40;;
14060;SDS011;7105;43.616;1.434;2023-04-25T14:44:56;1.83;;;1.40;;
14060;SDS011;7105;43.616;1.434;2023-04-25T14:47:22;2.00;;;1.80;;
14060;SDS011;7105;43.616;1.434;2023-04-25T14:49:47;2.43;;;2.10;;
14060;SDS011;7105;43.616;1.434;2023-04-25T14:52:19;2.00;;;1.80;;
14060;SDS011;7105;43.616;1.434;2023-04-25T14:54:46;2.03;;;1.43;;
14060;SDS011;7105;43.616;1.434;2023-04-25T14:57:12;2.63;;;2.03;;
14060;SDS011;7105;43.616;1.434;2023-04-25T14:59:38;2.57;;;1.80;;
14060;SDS011;7105;43.616;1.434;2023-04-25T15:02:03;3.77;;;1.70;;
14060;SDS011;7105;43.616;1.434;2023-04-25T15:04:29;3.53;;;2.10;;
14060;SDS011;7105;43.616;1.434;2023-04-25T15:06:55;2.60;;;1.87;;
14060;SDS011;7105;43.616;1.434;2023-04-25T15:09:20;2.13;;;1.60;;
14060;SDS011;7105;43.616;1.434;2023-04-25T15:11:48;2.33;;;1.70;;
14060;SDS011;7105;43.616;1.434;2023-04-25T15:14:16;2.70;;;1.40;;
14060;SDS011;7105;43.616;1.434;2023-04-25T15:16:42;2.33;;;2.00;;
14060;SDS011;7105;43.616;1.434;2023-04-25T15:19:07;2.10;;;1.90;;
14060;SDS011;7105;43.616;1.434;2023-04-25T15:21:33;3.67;;;2.37;;